Time;durP1;ratioP1;P1;durP2;ratioP2;P2;SDS_P1;SDS_P2;PMS_P1;PMS_P2;Temp;Humidity;BMP_temperature;BMP_pressure;BME280_temperature;BME280_humidity;BME280_pressure;Samples;Min_cycle;Max_cycle;Signal;HPM_P1;HPM_P2
2022/07/04 00:03:42;;;;;;;2.63;1.13;;;;;;;15.33;91.90;100983.44;8288190;28;20040;-64
2022/07/04 00:07:44;;;;;;;2.90;1.05;;;;;;;15.23;92.33;100979.97;8287891;28;20661;-65
2022/07/04 00:11:45;;;;;;;3.40;1.13;;;;;;;15.10;93.55;100984.13;8283808;28;20042;-65
2022/07/04 00:15:45;;;;;;;2.08;1.10;;;;;;;15.37;90.77;100986.75;8294131;28;20062;-65
2022/07/04 00:19:45;;;;;;;0.98;0.82;;;;;;;15.17;92.36;100991.50;8282227;28;20393;-64
2022/07/04 00:23:46;;;;;;;2.53;0.98;;;;;;;14.86;94.86;100984.78;8294813;28;20116;-64
2022/07/04 00:27:46;;;;;;;2.63;0.93;;;;;;;14.79;94.33;100982.84;8294044;28;20128;-65
2022/07/04 00:31:47;;;;;;;4.68;1.20;;;;;;;14.93;93.44;100977.69;8293211;28;20164;-64
2022/07/04 00:35:47;;;;;;;9.27;1.92;;;;;;;15.21;91.14;100987.44;8293999;28;20030;-64
2022/07/04 00:39:48;;;;;;;5.40;1.40;;;;;;;14.97;91.30;100984.53;8308709;28;20478;-65
2022/07/04 00:44:05;;;;;;;5.00;1.20;;;;;;;15.15;91.24;100977.19;8291352;28;20288;-65
2022/07/04 00:48:06;;;;;;;3.42;1.50;;;;;;;15.14;90.32;100978.22;8289715;28;20132;-64
2022/07/04 00:52:07;;;;;;;8.90;1.77;;;;;;;15.16;90.28;100961.72;8289364;28;20030;-64
2022/07/04 00:56:07;;;;;;;3.33;1.10;;;;;;;14.99;92.21;100963.44;8291924;28;20855;-64
2022/07/04 01:00:08;;;;;;;5.85;1.10;;;;;;;14.94;91.75;100964.91;8292097;28;20066;-64
2022/07/04 01:04:08;;;;;;;2.97;1.02;;;;;;;15.00;93.19;100967.00;8293181;28;20365;-64
2022/07/04 01:08:09;;;;;;;4.30;1.27;;;;;;;14.91;93.59;100957.91;8292079;28;20062;-64
2022/07/04 01:12:10;;;;;;;5.85;1.20;;;;;;;14.87;92.24;100956.53;8293219;28;20549;-64
2022/07/04 01:16:11;;;;;;;4.10;1.50;;;;;;;14.87;91.54;100972.00;8292815;28;20402;-64
2022/07/04 01:20:13;;;;;;;3.17;1.10;;;;;;;14.70;91.53;100965.56;8290139;28;20041;-64
2022/07/04 01:24:13;;;;;;;4.18;1.70;;;;;;;14.73;91.82;100958.97;8292373;28;20042;-65
2022/07/04 01:28:14;;;;;;;9.00;1.67;;;;;;;14.64;93.41;100966.19;8292076;28;20049;-64
2022/07/04 01:32:14;;;;;;;1.58;1.25;;;;;;;14.48;94.62;100971.47;8261293;28;20047;-64
2022/07/04 01:36:15;;;;;;;5.03;1.63;;;;;;;14.38;94.80;100976.13;8237085;28;20053;-64
2022/07/04 01:40:16;;;;;;;3.38;1.20;;;;;;;14.28;94.49;100980.78;8239317;28;20042;-64
2022/07/04 01:44:16;;;;;;;3.92;1.50;;;;;;;14.24;95.19;100978.53;8240587;28;20505;-64
2022/07/04 01:48:17;;;;;;;2.72;1.70;;;;;;;13.69;99.11;100988.47;8241960;28;20065;-64
2022/07/04 01:52:17;;;;;;;4.43;1.70;;;;;;;13.89;98.11;100990.13;8242103;28;20042;-64
2022/07/04 01:56:17;;;;;;;3.50;1.48;;;;;;;13.79;98.81;100989.31;8257006;28;20294;-64
2022/07/04 02:01:34;;;;;;;7.50;1.92;;;;;;;13.83;99.07;100993.44;8235496;28;20045;-64
2022/07/04 02:04:38;;;;;;;4.32;1.40;;;;;;;13.72;98.25;100996.34;8274986;28;20126;-64
2022/07/04 02:09:39;;;;;;;6.63;2.42;;;;;;;13.71;99.42;100989.19;8273488;28;20037;-64
2022/07/04 02:13:03;;;;;;;3.05;1.40;;;;;;;13.61;100.00;100988.38;8269022;28;20149;-64
2022/07/04 02:17:03;;;;;;;4.57;2.03;;;;;;;13.64;100.00;101001.69;8267551;28;20137;-64
2022/07/04 02:21:04;;;;;;;6.65;1.83;;;;;;;13.63;100.00;101002.66;8268716;28;20049;-64
2022/07/04 02:25:05;;;;;;;5.85;2.63;;;;;;;13.85;99.04;100999.59;8267205;28;20049;-64
2022/07/04 02:29:05;;;;;;;6.80;1.92;;;;;;;13.64;100.00;101007.13;8266749;28;20076;-64
2022/07/04 02:33:05;;;;;;;4.68;1.80;;;;;;;13.58;100.00;101008.53;8265065;28;20046;-64
2022/07/04 02:37:06;;;;;;;4.80;1.67;;;;;;;13.18;100.00;101009.81;8267025;28;20096;-64
2022/07/04 02:41:06;;;;;;;3.65;1.60;;;;;;;12.96;100.00;101015.50;8266684;28;20656;-64
2022/07/04 02:45:07;;;;;;;4.72;2.35;;;;;;;12.86;100.00;101006.50;8273174;28;20072;-64
2022/07/04 02:49:08;;;;;;;5.00;2.60;;;;;;;12.82;100.00;101018.63;8267200;28;20065;-64
2022/07/04 02:53:08;;;;;;;5.82;3.13;;;;;;;12.82;100.00;101015.94;8266440;28;20120;-64
2022/07/04 02:57:09;;;;;;;3.00;2.72;;;;;;;13.08;100.00;101023.38;8259858;28;20042;-64
2022/07/04 03:01:10;;;;;;;5.18;2.53;;;;;;;12.89;100.00;101025.19;8272467;28;20053;-64
2022/07/04 03:05:10;;;;;;;5.75;2.90;;;;;;;12.83;100.00;101036.63;8285888;28;20065;-64
2022/07/04 03:09:11;;;;;;;4.70;3.65;;;;;;;12.97;100.00;101041.63;8259504;28;20048;-64
2022/07/04 03:13:11;;;;;;;4.22;2.45;;;;;;;13.13;100.00;101044.66;8278198;28;20037;-64
2022/07/04 03:17:12;;;;;;;5.45;3.20;;;;;;;13.14;100.00;101049.06;8274072;28;20562;-64
2022/07/04 03:21:12;;;;;;;2.83;2.25;;;;;;;12.77;100.00;101051.63;8268221;28;20450;-64
2022/07/04 03:25:12;;;;;;;5.68;2.70;;;;;;;12.75;100.00;101058.19;8267054;28;20056;-64
2022/07/04 03:29:13;;;;;;;2.35;2.15;;;;;;;12.62;100.00;101068.44;8266120;28;20038;-65
2022/07/04 03:33:13;;;;;;;6.07;2.70;;;;;;;12.69;100.00;101062.31;8265792;28;20037;-64
2022/07/04 03:37:13;;;;;;;4.25;2.25;;;;;;;12.78;100.00;101061.47;8269603;28;20117;-64
2022/07/04 03:41:14;;;;;;;3.53;2.70;;;;;;;12.51;100.00;101057.72;8269941;28;20046;-64
2022/07/04 03:45:14;;;;;;;6.00;2.63;;;;;;;12.77;100.00;101064.31;8289322;28;20702;-64
2022/07/04 03:49:15;;;;;;;3.92;2.30;;;;;;;12.94;100.00;101077.22;8271379;28;20046;-64
2022/07/04 03:53:15;;;;;;;5.10;2.70;;;;;;;13.06;100.00;101059.81;8266852;28;20065;-64
2022/07/04 03:57:16;;;;;;;3.88;2.30;;;;;;;13.02;100.00;101070.09;8264616;28;20301;-64
2022/07/04 04:01:18;;;;;;;8.43;2.83;;;;;;;12.89;100.00;101057.78;8267555;28;20066;-64
2022/07/04 04:05:33;;;;;;;4.20;2.67;;;;;;;12.94;100.00;101074.50;8272307;28;20045;-64
2022/07/04 04:09:34;;;;;;;5.70;2.83;;;;;;;13.37;100.00;101066.78;8272881;28;20049;-64
2022/07/04 04:13:35;;;;;;;3.53;2.28;;;;;;;13.59;100.00;101069.19;8266910;28;20136;-64
2022/07/04 04:17:35;;;;;;;9.63;4.05;;;;;;;13.50;100.00;101064.63;8269880;28;20140;-64
2022/07/04 04:21:35;;;;;;;4.53;2.97;;;;;;;13.46;100.00;101071.34;8268209;28;20038;-64
2022/07/04 04:25:36;;;;;;;6.57;3.30;;;;;;;13.53;100.00;101069.75;8266096;28;20080;-64
2022/07/04 04:29:36;;;;;;;4.28;3.17;;;;;;;13.60;100.00;101065.44;8287198;28;20042;-64
2022/07/04 04:33:37;;;;;;;6.38;3.22;;;;;;;13.47;100.00;101076.66;8272051;28;20066;-64
2022/07/04 04:37:37;;;;;;;8.40;3.75;;;;;;;13.53;100.00;101080.63;8269429;28;20088;-64
2022/07/04 04:41:37;;;;;;;6.95;3.20;;;;;;;13.77;100.00;101083.72;8260550;28;20146;-64
2022/07/04 04:45:39;;;;;;;5.60;2.80;;;;;;;13.93;100.00;101081.22;8262085;28;20095;-64
2022/07/04 04:49:40;;;;;;;5.20;2.97;;;;;;;14.35;99.92;101085.25;8266376;28;20053;-64
2022/07/04 04:53:40;;;;;;;4.15;2.95;;;;;;;14.50;97.26;101089.19;8267693;28;20034;-64
2022/07/04 04:57:41;;;;;;;6.60;2.92;;;;;;;14.79;96.27;101081.69;8273659;28;20124;-64
2022/07/04 05:01:41;;;;;;;7.22;2.95;;;;;;;15.08;94.81;101076.88;8275154;28;20049;-64
2022/07/04 05:05:42;;;;;;;7.47;3.08;;;;;;;15.30;95.08;101081.84;8274247;28;20037;-64
2022/07/04 05:09:42;;;;;;;10.25;2.72;;;;;;;15.50;91.87;101086.13;8276464;28;20200;-64
2022/07/04 05:13:43;;;;;;;6.65;2.33;;;;;;;15.53;90.76;101080.34;8270737;28;20498;-64
2022/07/04 05:17:43;;;;;;;6.05;2.47;;;;;;;15.71;90.13;101073.00;8275675;28;20050;-64
2022/07/04 05:21:44;;;;;;;5.35;2.85;;;;;;;15.78;91.64;101078.69;8277001;28;20506;-64
2022/07/04 05:25:44;;;;;;;12.93;2.53;;;;;;;15.81;92.43;101077.50;8274158;28;20042;-64
2022/07/04 05:29:44;;;;;;;6.13;2.30;;;;;;;16.35;91.35;101085.31;8269661;28;20160;-64
2022/07/04 05:33:45;;;;;;;9.95;3.00;;;;;;;16.88;89.28;101080.38;8266999;28;20690;-64
2022/07/04 05:37:45;;;;;;;11.32;3.22;;;;;;;17.05;88.19;101074.78;8268196;28;20069;-64
2022/07/04 05:41:45;;;;;;;7.87;2.43;;;;;;;17.34;85.57;101077.91;8265946;28;20118;-64
2022/07/04 05:45:48;;;;;;;7.80;2.28;;;;;;;17.32;85.52;101079.06;8265271;28;20822;-64
2022/07/04 05:49:48;;;;;;;7.18;2.05;;;;;;;17.80;84.00;101079.09;8271475;28;20054;-64
2022/07/04 05:53:49;;;;;;;4.25;1.75;;;;;;;17.82;83.64;101082.53;8277074;28;20048;-64
2022/07/04 05:57:49;;;;;;;6.70;2.75;;;;;;;17.94;83.45;101081.13;8273681;28;20049;-65
2022/07/04 06:01:49;;;;;;;5.05;1.58;;;;;;;18.40;79.09;101088.56;8271686;28;20038;-64
2022/07/04 06:05:50;;;;;;;4.68;1.27;;;;;;;18.67;78.55;101085.31;8265879;28;20052;-64
2022/07/04 06:09:50;;;;;;;5.00;1.58;;;;;;;18.93;78.91;101082.28;8267573;28;20054;-65
2022/07/04 06:13:51;;;;;;;6.60;1.88;;;;;;;19.36;77.78;101076.16;8274801;28;20435;-65
2022/07/04 06:17:51;;;;;;;3.40;1.45;;;;;;;19.52;77.11;101071.41;8271598;28;20137;-64
2022/07/04 06:21:51;;;;;;;3.13;1.33;;;;;;;19.38;73.09;101069.50;8272045;28;20149;-65
2022/07/04 06:25:52;;;;;;;3.70;1.10;;;;;;;19.83;74.05;101073.19;8270063;28;20116;-65
2022/07/04 06:29:52;;;;;;;5.73;1.20;;;;;;;19.64;71.19;101074.56;8274470;28;20301;-64
2022/07/04 06:38:16;;;;;;;3.50;1.33;;;;;;;20.24;71.09;101082.72;8272903;28;20059;-64
2022/07/04 06:42:17;;;;;;;3.35;0.90;;;;;;;20.72;69.60;101079.38;8271694;28;20091;-64
2022/07/04 06:46:17;;;;;;;4.70;0.60;;;;;;;20.46;67.64;101081.78;8265393;28;20325;-64
2022/07/04 06:50:18;;;;;;;1.63;0.77;;;;;;;20.93;68.04;101079.41;8271709;28;20115;-64
2022/07/04 06:54:18;;;;;;;3.50;0.93;;;;;;;20.87;67.53;101074.69;8267901;28;20305;-64
2022/07/04 06:58:19;;;;;;;2.92;0.90;;;;;;;21.02;68.09;101067.28;8267081;28;20076;-64
2022/07/04 07:02:19;;;;;;;3.60;0.70;;;;;;;20.62;69.18;101081.56;8266971;28;20038;-64
2022/07/04 07:06:19;;;;;;;1.53;0.80;;;;;;;20.65;68.20;101075.69;8268376;28;20845;-64
2022/07/04 07:10:21;;;;;;;2.67;0.60;;;;;;;21.10;66.61;101065.25;8273659;28;20396;-64
2022/07/04 07:14:21;;;;;;;2.38;1.02;;;;;;;21.23;65.12;101064.56;8283220;28;20040;-64
2022/07/04 07:18:21;;;;;;;3.60;0.50;;;;;;;21.51;63.33;101059.97;8265752;28;20124;-64
2022/07/04 07:22:22;;;;;;;2.13;0.40;;;;;;;21.11;64.99;101057.88;8279679;28;20805;-64
2022/07/04 07:26:22;;;;;;;1.52;0.65;;;;;;;21.24;63.50;101063.50;8265678;28;20299;-64
2022/07/04 07:30:23;;;;;;;1.35;0.50;;;;;;;21.55;64.98;101064.00;8265001;28;20041;-64
2022/07/04 07:34:23;;;;;;;0.98;0.40;;;;;;;21.54;63.17;101056.81;8268438;28;20054;-64
2022/07/04 07:38:24;;;;;;;2.10;0.60;;;;;;;21.89;61.52;101066.03;8265429;28;20085;-64
2022/07/04 07:42:25;;;;;;;3.65;0.63;;;;;;;22.02;62.72;101066.94;8272224;28;20096;-64
2022/07/04 07:46:25;;;;;;;2.35;0.73;;;;;;;21.82;61.77;101065.97;8272982;28;20450;-64
2022/07/04 07:50:26;;;;;;;3.03;0.50;;;;;;;21.86;58.68;101070.00;8276089;28;20034;-64
2022/07/04 07:54:26;;;;;;;2.60;0.50;;;;;;;22.34;60.56;101077.34;8274262;28;20089;-64
2022/07/04 07:58:27;;;;;;;4.67;0.53;;;;;;;22.18;56.01;101072.16;8293761;28;20045;-64
2022/07/04 08:06:47;;;;;;;6.10;0.60;;;;;;;22.06;58.06;101068.28;8278369;28;20038;-64
2022/07/04 08:10:48;;;;;;;2.25;0.40;;;;;;;21.75;58.44;101076.09;8278994;28;20130;-64
2022/07/04 08:14:48;;;;;;;5.63;0.85;;;;;;;22.41;58.60;101074.63;8293257;28;20449;-64
2022/07/04 08:18:49;;;;;;;7.33;0.80;;;;;;;22.61;58.00;101072.84;8273032;28;20065;-64
2022/07/04 08:22:49;;;;;;;6.38;0.90;;;;;;;22.24;56.28;101082.38;8273355;28;20274;-64
2022/07/04 08:26:49;;;;;;;3.03;1.00;;;;;;;22.83;59.90;101089.06;8274206;28;20042;-62
2022/07/04 08:30:50;;;;;;;112.97;8.65;;;;;;;24.12;55.61;101080.41;8251352;28;20045;-62
2022/07/04 08:34:50;;;;;;;27.87;2.10;;;;;;;24.91;52.71;101071.66;8245104;28;20957;-62
2022/07/04 08:38:51;;;;;;;13.18;1.55;;;;;;;24.14;53.38;101078.25;8244801;28;20298;-63
2022/07/04 08:42:52;;;;;;;4.10;0.60;;;;;;;23.39;52.88;101080.56;8249640;28;20042;-59
2022/07/04 08:46:54;;;;;;;12.02;1.38;;;;;;;23.65;53.73;101064.00;8250444;28;20333;-59
2022/07/04 08:50:57;;;;;;;8.90;1.00;;;;;;;24.47;52.67;101070.75;8249059;28;20502;-61
2022/07/04 08:59:18;;;;;;;10.35;0.80;;;;;;;24.56;50.23;101074.97;8244858;28;20039;-60
2022/07/04 09:03:20;;;;;;;8.10;0.90;;;;;;;23.84;52.32;101063.16;8240455;28;20494;-64
2022/07/04 09:07:21;;;;;;;4.18;0.95;;;;;;;22.97;53.47;101082.53;8231642;28;20061;-64
2022/07/04 09:11:21;;;;;;;3.60;0.52;;;;;;;22.88;54.63;101075.50;8243256;28;20050;-64
2022/07/04 09:15:22;;;;;;;5.63;1.05;;;;;;;22.53;54.67;101071.13;8235466;28;20042;-64
2022/07/04 09:19:23;;;;;;;4.22;1.15;;;;;;;23.39;56.43;101066.75;8245774;28;20042;-64
2022/07/04 09:23:27;;;;;;;8.27;0.82;;;;;;;23.15;56.94;101069.00;8252715;28;20419;-65
2022/07/04 09:27:31;;;;;;;7.38;0.95;;;;;;;23.99;57.71;101055.53;8240206;28;20050;-64
2022/07/04 09:31:32;;;;;;;8.77;0.90;;;;;;;23.68;56.50;101058.06;8239176;28;20072;-64
2022/07/04 09:35:34;;;;;;;9.10;1.10;;;;;;;23.63;55.65;101053.19;8237680;28;20042;-64
2022/07/04 09:39:36;;;;;;;7.50;0.80;;;;;;;23.70;55.77;101053.19;8241185;28;20042;-64
2022/07/04 09:43:37;;;;;;;4.20;0.82;;;;;;;24.26;55.88;101048.88;8240175;28;20034;-64
2022/07/04 09:47:39;;;;;;;2.28;0.70;;;;;;;24.33;54.65;101049.72;8244440;28;20133;-64
2022/07/04 09:51:43;;;;;;;8.02;0.98;;;;;;;24.34;54.79;101048.66;8229133;28;20046;-64
2022/07/04 09:55:45;;;;;;;;;;;;;;;24.13;53.72;101032.34;8272117;28;20033;-65
2022/07/04 09:59:46;;;;;;;3.38;0.60;;;;;;;24.06;54.48;101042.56;8288025;28;20133;-65
2022/07/04 10:03:51;;;;;;;4.75;0.82;;;;;;;24.69;53.28;101041.75;8291062;28;20096;-64
2022/07/04 10:07:54;;;;;;;6.82;0.57;;;;;;;26.59;50.96;101028.91;8291877;28;20045;-64
2022/07/04 10:11:54;;;;;;;2.67;0.60;;;;;;;27.61;50.58;101027.88;8293193;28;20096;-64
2022/07/04 10:15:54;;;;;;;5.13;0.88;;;;;;;28.21;48.94;101029.41;8293237;28;20057;-64
2022/07/04 10:19:55;;;;;;;5.13;0.65;;;;;;;28.91;46.11;101030.13;8294115;28;20406;-63
2022/07/04 10:23:56;;;;;;;4.15;0.60;;;;;;;29.49;47.61;101027.91;8295010;28;20038;-62
2022/07/04 10:27:57;;;;;;;4.53;1.00;;;;;;;28.89;44.42;101019.22;8294164;28;20052;-62
2022/07/04 10:31:57;;;;;;;4.47;0.73;;;;;;;29.71;43.50;101021.38;8294701;28;20038;-62
2022/07/04 10:36:13;;;;;;;2.50;0.70;;;;;;;30.81;43.48;101022.19;8294340;28;20045;-62
2022/07/04 10:40:42;;;;;;;4.55;0.60;;;;;;;29.85;43.79;101016.31;8293953;28;20048;-63
2022/07/04 10:44:43;;;;;;;4.65;1.00;;;;;;;30.93;42.51;101013.66;8293608;28;20556;-63
2022/07/04 10:49:07;;;;;;;4.22;0.80;;;;;;;31.24;40.84;101015.69;8293128;28;20509;-63
2022/07/04 10:53:09;;;;;;;4.20;0.50;;;;;;;31.74;41.37;101000.22;8293378;28;20483;-63
2022/07/04 10:57:15;;;;;;;7.47;0.50;;;;;;;31.58;40.85;100994.78;8293538;28;20030;-63
2022/07/04 11:01:18;;;;;;;2.20;0.82;;;;;;;30.76;42.28;100985.81;8293373;28;20076;-63
2022/07/04 11:05:31;;;;;;;2.40;0.50;;;;;;;30.74;41.14;100982.47;8270036;28;20395;-63
2022/07/04 11:09:31;;;;;;;2.30;0.60;;;;;;;30.00;42.46;100989.47;8260303;28;20061;-63
2022/07/04 11:13:32;;;;;;;3.43;0.73;;;;;;;30.98;42.24;100995.00;8260088;28;20022;-64
2022/07/04 11:17:37;;;;;;;3.65;0.47;;;;;;;32.27;39.67;100990.84;8260277;28;20702;-64
2022/07/04 11:21:37;;;;;;;4.22;0.52;;;;;;;31.96;39.85;100987.00;8292562;28;20034;-64
2022/07/04 11:25:40;;;;;;;5.53;0.57;;;;;;;31.52;40.88;100987.47;8292849;28;20038;-64
2022/07/04 11:29:50;;;;;;;3.88;0.63;;;;;;;32.19;40.23;100991.34;8291838;28;20273;-64
2022/07/04 11:33:54;;;;;;;3.03;0.55;;;;;;;32.84;41.94;100999.25;8292100;28;20034;-64
2022/07/04 11:37:56;;;;;;;5.18;0.40;;;;;;;32.67;39.47;100988.25;8291284;28;20048;-64
2022/07/04 11:46:18;;;;;;;7.45;0.63;;;;;;;29.29;43.86;100992.19;8291609;28;20105;-64
2022/07/04 11:50:18;;;;;;;7.03;0.45;;;;;;;27.05;49.50;100988.59;8291949;28;20042;-63
2022/07/04 11:54:19;;;;;;;1.30;0.63;;;;;;;28.44;46.27;100979.28;8290920;28;20414;-63
2022/07/04 11:58:19;;;;;;;3.13;0.50;;;;;;;30.75;43.89;100978.56;8291093;28;20076;-63
2022/07/04 12:02:19;;;;;;;1.00;0.30;;;;;;;27.57;44.87;100962.78;8290848;28;20038;-63
2022/07/04 12:06:21;;;;;;;6.38;1.02;;;;;;;26.75;47.06;100972.78;8296445;28;20277;-63
2022/07/04 12:10:23;;;;;;;3.50;1.10;;;;;;;27.28;46.59;100960.91;8298149;28;20065;-63
2022/07/04 12:14:25;;;;;;;2.83;0.57;;;;;;;29.42;44.15;100960.31;8298053;28;20073;-63
2022/07/04 12:18:29;;;;;;;1.95;0.73;;;;;;;27.95;46.69;100957.59;8297022;28;20040;-63
2022/07/04 12:22:32;;;;;;;3.07;0.60;;;;;;;26.57;47.15;100958.94;8298217;28;20107;-63
2022/07/04 12:26:34;;;;;;;5.50;0.60;;;;;;;26.40;47.15;100962.56;8297654;28;20450;-63
2022/07/04 12:30:39;;;;;;;3.80;0.52;;;;;;;26.65;47.71;100961.41;8298239;28;20505;-63
2022/07/04 12:34:39;;;;;;;6.47;0.95;;;;;;;26.50;47.79;100969.25;8297382;28;20095;-62
2022/07/04 12:38:41;;;;;;;6.28;0.60;;;;;;;25.99;48.86;100960.53;8296989;28;20025;-63
2022/07/04 12:42:42;;;;;;;1.38;0.63;;;;;;;25.59;48.88;100948.13;8295517;28;20030;-63
2022/07/04 12:46:43;;;;;;;3.83;0.53;;;;;;;25.80;49.61;100955.97;8296255;28;20116;-63
2022/07/04 12:50:43;;;;;;;5.38;0.60;;;;;;;26.21;49.84;100942.34;8296819;28;20376;-63
2022/07/04 12:54:46;;;;;;;2.50;0.55;;;;;;;26.01;46.98;100941.72;8295177;28;20036;-63
2022/07/04 12:58:47;;;;;;;1.45;0.50;;;;;;;26.27;49.07;100946.97;8290867;28;20054;-63
2022/07/04 13:02:47;;;;;;;2.13;0.43;;;;;;;26.32;47.03;100938.78;8295811;28;20030;-63
2022/07/04 13:06:47;;;;;;;3.33;0.63;;;;;;;26.64;46.84;100947.78;8296191;28;20046;-63
2022/07/04 13:10:48;;;;;;;4.13;0.68;;;;;;;26.76;48.18;100934.78;8296831;28;20053;-63
2022/07/04 13:14:48;;;;;;;3.20;0.68;;;;;;;26.41;46.63;100942.91;8295666;28;20391;-63
2022/07/04 13:18:49;;;;;;;3.53;0.60;;;;;;;25.93;47.91;100944.78;8296490;28;20069;-63
2022/07/04 13:22:49;;;;;;;1.43;0.60;;;;;;;25.95;48.22;100948.16;8296338;28;20303;-63
2022/07/04 13:26:50;;;;;;;2.25;0.70;;;;;;;26.26;47.12;100941.66;8290193;28;20034;-63
2022/07/04 13:30:50;;;;;;;3.05;0.60;;;;;;;26.38;47.05;100937.84;8257193;28;20518;-63
2022/07/04 13:34:51;;;;;;;2.42;0.50;;;;;;;26.54;48.22;100937.22;8263542;28;20030;-63
2022/07/04 13:38:51;;;;;;;3.58;0.73;;;;;;;25.91;47.90;100935.84;8262486;28;20030;-63
2022/07/04 13:42:59;;;;;;;1.73;0.80;;;;;;;26.31;48.17;100931.53;8263224;28;20521;-63
2022/07/04 13:46:59;;;;;;;3.97;0.60;;;;;;;26.35;48.52;100924.44;8263190;28;20045;-63
2022/07/04 13:50:59;;;;;;;2.78;0.50;;;;;;;26.22;48.64;100921.84;8263218;28;20065;-63
2022/07/04 13:55:00;;;;;;;5.43;0.60;;;;;;;26.07;49.41;100924.16;8263430;28;20038;-63
2022/07/04 13:59:02;;;;;;;6.65;0.50;;;;;;;26.16;48.89;100920.00;8262425;28;20290;-63
2022/07/04 14:03:03;;;;;;;6.78;0.80;;;;;;;25.94;47.65;100924.28;8293709;28;20134;-63
2022/07/04 14:07:04;;;;;;;8.65;0.60;;;;;;;25.67;47.92;100922.88;8294048;28;20041;-63
2022/07/04 14:11:04;;;;;;;3.70;0.60;;;;;;;25.70;49.23;100905.81;8295252;28;20534;-63
2022/07/04 14:15:05;;;;;;;3.00;0.52;;;;;;;25.90;48.71;100900.03;8294143;28;20513;-63
2022/07/04 14:19:06;;;;;;;5.13;0.60;;;;;;;26.55;49.38;100897.28;8293933;28;20513;-63
2022/07/04 14:23:06;;;;;;;1.17;0.60;;;;;;;26.59;46.38;100906.00;8293609;28;20088;-63
2022/07/04 14:27:07;;;;;;;4.70;0.60;;;;;;;26.03;47.26;100906.31;8292347;28;20273;-63
2022/07/04 14:31:08;;;;;;;3.85;0.80;;;;;;;26.16;49.33;100906.13;8293899;28;20831;-63
2022/07/04 14:35:08;;;;;;;1.80;0.60;;;;;;;25.81;48.13;100901.41;8292975;28;20076;-63
2022/07/04 14:39:09;;;;;;;2.38;0.85;;;;;;;25.76;49.96;100893.81;8293257;28;20490;-63
2022/07/04 14:43:09;;;;;;;5.85;1.08;;;;;;;25.80;49.41;100900.56;8292081;28;20497;-63
2022/07/04 14:47:09;;;;;;;3.53;0.60;;;;;;;25.78;47.34;100891.66;8292499;28;20514;-63
2022/07/04 14:51:10;;;;;;;1.58;0.70;;;;;;;26.38;47.47;100871.28;8292186;28;20034;-63
2022/07/04 14:55:10;;;;;;;0.75;0.40;;;;;;;26.33;46.14;100864.75;8293527;28;20398;-63
2022/07/04 14:59:11;;;;;;;3.93;0.63;;;;;;;26.18;48.15;100870.72;8292782;28;20461;-63
2022/07/04 15:03:11;;;;;;;4.82;0.50;;;;;;;26.03;46.89;100872.19;8292854;28;20288;-63
2022/07/04 15:07:11;;;;;;;3.38;0.50;;;;;;;26.22;49.33;100871.94;8292370;28;20045;-63
2022/07/04 15:11:12;;;;;;;3.28;0.50;;;;;;;25.95;49.35;100867.78;8292632;28;20034;-63
2022/07/04 15:15:13;;;;;;;2.88;0.57;;;;;;;25.93;50.34;100867.19;8292118;28;20034;-63
2022/07/04 15:19:14;;;;;;;1.88;0.60;;;;;;;25.91;47.39;100862.94;8292421;28;20054;-63
2022/07/04 15:24:14;;;;;;;4.30;0.55;;;;;;;25.92;48.20;100859.94;8292240;28;20034;-63
2022/07/04 15:27:34;;;;;;;6.32;0.82;;;;;;;25.79;50.55;100865.63;8292207;28;20092;-63
2022/07/04 15:31:35;;;;;;;4.07;0.70;;;;;;;25.84;48.08;100851.94;8292642;28;20042;-63
2022/07/04 15:35:35;;;;;;;3.83;0.68;;;;;;;25.87;47.39;100854.25;8292145;28;20295;-63
2022/07/04 15:39:37;;;;;;;1.65;0.60;;;;;;;25.89;48.43;100854.84;8291804;28;20030;-63
2022/07/04 15:43:37;;;;;;;1.80;0.60;;;;;;;25.82;48.54;100854.09;8291009;28;20042;-63
2022/07/04 15:47:38;;;;;;;3.40;0.43;;;;;;;25.90;49.03;100852.94;8291830;28;20091;-63
2022/07/04 15:51:39;;;;;;;3.13;0.65;;;;;;;26.07;48.74;100843.78;8258739;28;20050;-63
2022/07/04 15:55:39;;;;;;;4.40;0.60;;;;;;;26.08;48.38;100847.41;8259271;28;20108;-64
2022/07/04 15:59:40;;;;;;;4.33;0.47;;;;;;;25.97;48.35;100829.59;8252347;28;20115;-64
2022/07/04 16:03:41;;;;;;;1.63;0.60;;;;;;;26.46;48.86;100843.22;8253395;28;20270;-64
2022/07/04 16:07:41;;;;;;;2.97;0.60;;;;;;;26.36;48.11;100840.19;8259271;28;20039;-64
2022/07/04 16:11:42;;;;;;;2.87;0.90;;;;;;;26.10;48.36;100834.16;8258638;28;20273;-64
2022/07/04 16:15:42;;;;;;;2.92;0.60;;;;;;;26.15;47.55;100824.06;8258889;28;20027;-64
2022/07/04 16:19:43;;;;;;;2.47;0.55;;;;;;;26.15;48.79;100821.28;8258612;28;20070;-64
2022/07/04 16:23:43;;;;;;;3.70;1.20;;;;;;;25.97;49.17;100821.28;8259571;28;20069;-64
2022/07/04 16:27:43;;;;;;;6.45;0.80;;;;;;;25.86;49.73;100824.81;8251882;28;20377;-64
2022/07/04 16:31:44;;;;;;;3.05;0.73;;;;;;;25.77;48.09;100822.63;8255985;28;20038;-64
2022/07/04 16:35:46;;;;;;;2.85;0.50;;;;;;;25.41;49.42;100823.47;8258805;28;20039;-64
2022/07/04 16:39:46;;;;;;;2.22;0.60;;;;;;;25.37;51.33;100816.69;8259376;28;20054;-64
2022/07/04 16:43:47;;;;;;;5.10;0.80;;;;;;;25.46;49.28;100820.00;8253710;28;20070;-64
2022/07/04 16:47:47;;;;;;;3.42;0.75;;;;;;;25.60;49.76;100816.00;8258058;28;20100;-64
2022/07/04 16:51:47;;;;;;;1.57;0.60;;;;;;;25.57;49.39;100828.41;8260132;28;20499;-64
2022/07/04 16:55:49;;;;;;;4.40;0.60;;;;;;;25.50;49.75;100819.31;8253799;28;20297;-64
2022/07/04 16:59:49;;;;;;;2.08;0.63;;;;;;;25.29;50.35;100824.41;8257898;28;20288;-64
2022/07/04 17:03:50;;;;;;;5.10;0.90;;;;;;;25.31;50.24;100828.63;8257352;28;20042;-64
2022/07/04 17:07:50;;;;;;;8.03;0.93;;;;;;;25.26;51.22;100825.72;8254891;28;20527;-64
2022/07/04 17:11:50;;;;;;;3.95;0.77;;;;;;;25.37;49.30;100816.69;8287059;28;20280;-64
2022/07/04 17:15:51;;;;;;;4.95;0.50;;;;;;;25.39;49.23;100820.06;8286754;28;20045;-64
2022/07/04 17:19:54;;;;;;;2.33;0.50;;;;;;;25.34;48.97;100817.13;8288441;28;20381;-64
2022/07/04 17:23:54;;;;;;;4.20;0.80;;;;;;;25.17;50.70;100820.69;8284625;28;20085;-64
2022/07/04 17:27:55;;;;;;;3.33;0.90;;;;;;;25.39;50.99;100825.63;8289663;28;20054;-64
2022/07/04 17:31:56;;;;;;;2.97;0.60;;;;;;;25.32;51.56;100829.53;8289597;28;20522;-64
2022/07/04 17:35:56;;;;;;;2.73;0.63;;;;;;;25.14;50.50;100827.53;8287770;28;20065;-64
2022/07/04 17:39:56;;;;;;;1.73;0.50;;;;;;;25.03;51.12;100825.50;8289310;28;20331;-64
2022/07/04 17:43:57;;;;;;;2.70;0.80;;;;;;;25.05;51.01;100823.38;8289008;28;20041;-64
2022/07/04 17:47:57;;;;;;;2.83;0.60;;;;;;;24.99;50.66;100829.81;8288050;28;20288;-64
2022/07/04 17:51:58;;;;;;;2.22;0.60;;;;;;;24.95;50.33;100831.34;8285041;28;20814;-64
2022/07/04 17:55:59;;;;;;;1.70;0.50;;;;;;;24.93;50.00;100825.19;8288744;28;20057;-64
2022/07/04 17:59:59;;;;;;;2.78;0.60;;;;;;;25.04;51.10;100832.75;8287666;28;20489;-64
2022/07/04 18:03:59;;;;;;;3.95;0.43;;;;;;;24.96;51.21;100827.50;8280264;28;20391;-64
2022/07/04 18:08:00;;;;;;;2.47;0.70;;;;;;;24.84;49.87;100829.31;8287680;28;20046;-64
2022/07/04 18:12:00;;;;;;;2.00;0.83;;;;;;;24.73;50.81;100830.06;8288669;28;20569;-64
2022/07/04 18:16:01;;;;;;;1.27;0.70;;;;;;;24.66;51.52;100834.75;8288102;28;20291;-64
2022/07/04 18:20:02;;;;;;;1.52;0.50;;;;;;;24.55;52.99;100832.72;8287615;28;20058;-64
2022/07/04 18:24:03;;;;;;;5.05;0.50;;;;;;;24.40;53.12;100824.69;8287361;28;20490;-64
2022/07/04 18:28:03;;;;;;;4.20;0.60;;;;;;;24.32;52.73;100837.94;8284267;28;20076;-64
2022/07/04 18:32:04;;;;;;;2.20;0.52;;;;;;;24.29;53.14;100832.88;8285002;28;20059;-64
2022/07/04 18:36:07;;;;;;;0.88;0.57;;;;;;;24.37;52.26;100835.38;8284862;28;20092;-64
2022/07/04 18:43:23;;;;;;;3.05;0.55;;;;;;;24.29;52.70;100838.38;8286930;28;20064;-64
2022/07/04 18:44:28;;;;;;;3.15;0.50;;;;;;;24.26;53.25;100845.22;8282694;28;20072;-64
2022/07/04 18:48:31;;;;;;;1.60;0.50;;;;;;;24.11;53.53;100836.38;8287881;28;20589;-64
2022/07/04 18:52:32;;;;;;;2.08;0.40;;;;;;;24.02;54.28;100836.84;8276901;28;20049;-64
2022/07/04 18:56:33;;;;;;;1.13;0.50;;;;;;;23.81;55.20;100850.91;8277794;28;20092;-64
2022/07/04 19:00:34;;;;;;;3.63;0.60;;;;;;;23.71;55.26;100850.53;8278688;28;20345;-64